sensor_id;sensor_type;location;lat;lon;timestamp;pressure;altitude;pressure_sealevel;temperature;humidity
11011;BME280;5558;42.702;23.178;2022-11-20T00:01:31;92940.09;;;17.01;79.67
11011;BME280;5558;42.702;23.178;2022-11-20T00:03:59;92971.72;;;16.99;80.16
11011;BME280;5558;42.702;23.178;2022-11-20T00:06:27;92968.06;;;17.03;80.19
11011;BME280;5558;42.702;23.178;2022-11-20T00:08:55;92968.84;;;17.04;80.36
11011;BME280;5558;42.702;23.178;2022-11-20T00:11:26;92963.50;;;17.04;80.52
11011;BME280;5558;42.702;23.178;2022-11-20T00:13:54;92947.19;;;16.97;80.51
11011;BME280;5558;42.702;23.178;2022-11-20T00:16:24;92952.66;;;17.00;80.58
11011;BME280;5558;42.702;23.178;2022-11-20T00:18:52;92942.47;;;16.94;80.65
11011;BME280;5558;42.702;23.178;2022-11-20T00:21:21;92951.59;;;16.93;80.58
11011;BME280;5558;42.702;23.178;2022-11-20T00:23:50;92951.56;;;17.01;80.85
11011;BME280;5558;42.702;23.178;2022-11-20T00:26:18;92959.00;;;16.87;80.96
11011;BME280;5558;42.702;23.178;2022-11-20T00:28:49;92959.44;;;16.98;81.09
11011;BME280;5558;42.702;23.178;2022-11-20T00:31:16;92936.47;;;16.97;81.44
11011;BME280;5558;42.702;23.178;2022-11-20T00:33:43;92956.38;;;16.79;82.54
11011;BME280;5558;42.702;23.178;2022-11-20T00:36:12;92963.13;;;16.76;82.05
11011;BME280;5558;42.702;23.178;2022-11-20T00:38:39;92957.44;;;16.86;82.37
11011;BME280;5558;42.702;23.178;2022-11-20T00:41:09;92969.09;;;16.82;83.84
11011;BME280;5558;42.702;23.178;2022-11-20T00:43:36;92962.63;;;16.83;83.63
11011;BME280;5558;42.702;23.178;2022-11-20T00:46:05;92975.38;;;16.86;83.54
11011;BME280;5558;42.702;23.178;2022-11-20T00:48:32;92963.28;;;16.80;85.63
11011;BME280;5558;42.702;23.178;2022-11-20T00:50:59;92960.00;;;16.66;86.46
11011;BME280;5558;42.702;23.178;2022-11-20T00:53:26;92971.59;;;16.78;86.18
11011;BME280;5558;42.702;23.178;2022-11-20T00:55:54;92965.31;;;16.74;87.41
11011;BME280;5558;42.702;23.178;2022-11-20T00:58:23;92959.53;;;16.72;87.67
11011;BME280;5558;42.702;23.178;2022-11-20T01:00:50;92964.25;;;16.67;87.90
11011;BME280;5558;42.702;23.178;2022-11-20T01:03:17;92953.59;;;16.58;87.99
11011;BME280;5558;42.702;23.178;2022-11-20T01:05:44;92956.09;;;16.55;88.76
11011;BME280;5558;42.702;23.178;2022-11-20T01:08:10;92948.25;;;16.58;89.06
11011;BME280;5558;42.702;23.178;2022-11-20T01:10:37;92931.28;;;16.54;88.81
11011;BME280;5558;42.702;23.178;2022-11-20T01:13:04;92921.84;;;16.57;88.99
11011;BME280;5558;42.702;23.178;2022-11-20T01:15:49;92931.44;;;16.49;89.11
11011;BME280;5558;42.702;23.178;2022-11-20T01:18:16;92928.78;;;16.49;89.83
11011;BME280;5558;42.702;23.178;2022-11-20T01:20:43;92883.81;;;16.43;89.63
11011;BME280;5558;42.702;23.178;2022-11-20T01:23:09;92908.81;;;16.38;89.17
11011;BME280;5558;42.702;23.178;2022-11-20T01:25:36;92921.53;;;16.50;89.75
11011;BME280;5558;42.702;23.178;2022-11-20T01:28:03;92930.34;;;16.50;88.40
11011;BME280;5558;42.702;23.178;2022-11-20T01:30:29;92907.06;;;16.51;88.39
11011;BME280;5558;42.702;23.178;2022-11-20T01:32:57;92916.69;;;16.52;86.23
11011;BME280;5558;42.702;23.178;2022-11-20T01:35:24;92908.97;;;16.59;86.19
11011;BME280;5558;42.702;23.178;2022-11-20T01:37:51;92909.28;;;16.57;86.48
11011;BME280;5558;42.702;23.178;2022-11-20T01:40:17;92900.94;;;16.59;86.00
11011;BME280;5558;42.702;23.178;2022-11-20T01:42:46;92903.47;;;16.55;84.57
11011;BME280;5558;42.702;23.178;2022-11-20T01:45:56;92905.50;;;16.58;84.26
11011;BME280;5558;42.702;23.178;2022-11-20T01:48:26;92907.84;;;16.60;84.08
11011;BME280;5558;42.702;23.178;2022-11-20T01:50:55;92911.63;;;16.59;84.16
11011;BME280;5558;42.702;23.178;2022-11-20T01:53:26;92913.16;;;16.68;83.10
11011;BME280;5558;42.702;23.178;2022-11-20T01:55:56;92916.00;;;16.63;82.67
11011;BME280;5558;42.702;23.178;2022-11-20T01:58:29;92916.31;;;16.70;83.34
11011;BME280;5558;42.702;23.178;2022-11-20T02:00:56;92913.00;;;16.73;83.31
11011;BME280;5558;42.702;23.178;2022-11-20T02:03:25;92918.31;;;16.82;82.70
11011;BME280;5558;42.702;23.178;2022-11-20T02:05:56;92919.72;;;16.79;82.64
11011;BME280;5558;42.702;23.178;2022-11-20T02:08:25;92910.78;;;16.75;82.70
11011;BME280;5558;42.702;23.178;2022-11-20T02:10:52;92911.13;;;16.65;82.89
11011;BME280;5558;42.702;23.178;2022-11-20T02:13:19;92904.81;;;16.70;82.34
11011;BME280;5558;42.702;23.178;2022-11-20T02:16:04;92919.78;;;16.62;82.75
11011;BME280;5558;42.702;23.178;2022-11-20T02:18:36;92916.47;;;16.65;82.96
11011;BME280;5558;42.702;23.178;2022-11-20T02:21:07;92928.91;;;16.61;82.23
11011;BME280;5558;42.702;23.178;2022-11-20T02:23:39;92936.28;;;16.64;82.20
11011;BME280;5558;42.702;23.178;2022-11-20T02:26:09;92926.22;;;16.61;82.93
11011;BME280;5558;42.702;23.178;2022-11-20T02:28:37;92916.00;;;16.63;82.30
11011;BME280;5558;42.702;23.178;2022-11-20T02:31:04;92912.06;;;16.69;82.58
11011;BME280;5558;42.702;23.178;2022-11-20T02:33:31;92908.66;;;16.52;83.13
11011;BME280;5558;42.702;23.178;2022-11-20T02:35:57;92928.41;;;16.68;83.17
11011;BME280;5558;42.702;23.178;2022-11-20T02:38:24;92941.00;;;16.67;83.25
11011;BME280;5558;42.702;23.178;2022-11-20T02:40:51;92946.34;;;16.67;84.05
11011;BME280;5558;42.702;23.178;2022-11-20T02:43:19;92936.75;;;16.66;84.21
11011;BME280;5558;42.702;23.178;2022-11-20T02:45:45;92923.88;;;16.60;84.06
11011;BME280;5558;42.702;23.178;2022-11-20T02:48:12;92946.22;;;16.55;84.33
11011;BME280;5558;42.702;23.178;2022-11-20T02:50:39;92937.41;;;16.55;84.44
11011;BME280;5558;42.702;23.178;2022-11-20T02:53:06;92934.25;;;16.61;84.91
11011;BME280;5558;42.702;23.178;2022-11-20T02:55:33;92942.91;;;16.58;84.75
11011;BME280;5558;42.702;23.178;2022-11-20T02:58:00;92943.06;;;16.53;85.27
11011;BME280;5558;42.702;23.178;2022-11-20T03:00:28;92942.75;;;16.55;85.58
11011;BME280;5558;42.702;23.178;2022-11-20T03:02:55;92938.06;;;16.52;85.53
11011;BME280;5558;42.702;23.178;2022-11-20T03:05:21;92932.38;;;16.45;86.34
11011;BME280;5558;42.702;23.178;2022-11-20T03:07:48;92934.25;;;16.44;86.07
11011;BME280;5558;42.702;23.178;2022-11-20T03:10:15;92940.56;;;16.48;86.60
11011;BME280;5558;42.702;23.178;2022-11-20T03:12:42;92945.09;;;16.39;87.55
11011;BME280;5558;42.702;23.178;2022-11-20T03:15:09;92951.56;;;16.47;87.39
11011;BME280;5558;42.702;23.178;2022-11-20T03:17:37;92932.09;;;16.21;88.02
11011;BME280;5558;42.702;23.178;2022-11-20T03:20:05;92948.88;;;16.38;88.06
11011;BME280;5558;42.702;23.178;2022-11-20T03:22:32;92928.78;;;16.32;88.68
11011;BME280;5558;42.702;23.178;2022-11-20T03:24:59;92933.66;;;16.30;89.25
11011;BME280;5558;42.702;23.178;2022-11-20T03:27:25;92935.72;;;16.25;89.84
11011;BME280;5558;42.702;23.178;2022-11-20T03:29:52;92931.16;;;16.17;90.32
11011;BME280;5558;42.702;23.178;2022-11-20T03:32:19;92926.75;;;16.12;90.42
11011;BME280;5558;42.702;23.178;2022-11-20T03:34:47;92942.94;;;16.24;90.11
11011;BME280;5558;42.702;23.178;2022-11-20T03:37:14;92922.53;;;16.20;90.11
11011;BME280;5558;42.702;23.178;2022-11-20T03:39:40;92941.22;;;16.20;89.59
11011;BME280;5558;42.702;23.178;2022-11-20T03:42:08;92904.66;;;15.95;89.00
11011;BME280;5558;42.702;23.178;2022-11-20T03:44:55;92931.78;;;16.14;89.39
11011;BME280;5558;42.702;23.178;2022-11-20T03:47:21;92933.03;;;16.16;88.75
11011;BME280;5558;42.702;23.178;2022-11-20T03:49:49;92932.72;;;16.18;89.01
11011;BME280;5558;42.702;23.178;2022-11-20T03:52:16;92930.06;;;16.09;89.17
11011;BME280;5558;42.702;23.178;2022-11-20T03:54:43;92930.38;;;16.08;88.29
11011;BME280;5558;42.702;23.178;2022-11-20T03:57:09;92951.75;;;16.08;88.61
11011;BME280;5558;42.702;23.178;2022-11-20T03:59:36;92958.63;;;16.09;89.00
11011;BME280;5558;42.702;23.178;2022-11-20T04:02:03;92944.06;;;15.98;89.60
11011;BME280;5558;42.702;23.178;2022-11-20T04:04:29;92952.38;;;16.05;90.22
11011;BME280;5558;42.702;23.178;2022-11-20T04:06:57;92942.63;;;16.00;90.49
11011;BME280;5558;42.702;23.178;2022-11-20T04:09:24;92949.72;;;15.96;90.77
11011;BME280;5558;42.702;23.178;2022-11-20T04:11:51;92933.38;;;15.98;90.53
11011;BME280;5558;42.702;23.178;2022-11-20T04:14:18;92912.34;;;15.88;90.85
11011;BME280;5558;42.702;23.178;2022-11-20T04:16:45;92920.66;;;15.86;90.00
11011;BME280;5558;42.702;23.178;2022-11-20T04:19:13;92906.84;;;15.93;88.92
11011;BME280;5558;42.702;23.178;2022-11-20T04:21:40;92903.06;;;15.94;88.08
11011;BME280;5558;42.702;23.178;2022-11-20T04:24:09;92901.34;;;15.98;87.41
11011;BME280;5558;42.702;23.178;2022-11-20T04:26:37;92939.50;;;16.07;87.26
11011;BME280;5558;42.702;23.178;2022-11-20T04:29:04;92920.50;;;16.00;86.78
11011;BME280;5558;42.702;23.178;2022-11-20T04:31:32;92928.66;;;16.03;86.72
11011;BME280;5558;42.702;23.178;2022-11-20T04:33:59;92927.41;;;16.01;86.94
11011;BME280;5558;42.702;23.178;2022-11-20T04:36:27;92925.53;;;15.93;87.92
11011;BME280;5558;42.702;23.178;2022-11-20T04:38:55;92935.25;;;15.97;88.14
11011;BME280;5558;42.702;23.178;2022-11-20T04:41:25;92929.00;;;15.93;88.96
11011;BME280;5558;42.702;23.178;2022-11-20T04:43:54;92934.44;;;15.88;90.33
11011;BME280;5558;42.702;23.178;2022-11-20T04:46:25;92915.16;;;15.82;90.54
11011;BME280;5558;42.702;23.178;2022-11-20T04:48:52;92920.50;;;15.91;90.35
11011;BME280;5558;42.702;23.178;2022-11-20T04:51:20;92916.41;;;15.76;91.38
11011;BME280;5558;42.702;23.178;2022-11-20T04:53:47;92915.47;;;15.72;91.38
11011;BME280;5558;42.702;23.178;2022-11-20T04:56:14;92916.56;;;15.88;90.81
11011;BME280;5558;42.702;23.178;2022-11-20T04:58:42;92922.38;;;15.73;92.28
11011;BME280;5558;42.702;23.178;2022-11-20T05:01:11;92907.97;;;15.74;92.38
11011;BME280;5558;42.702;23.178;2022-11-20T05:03:38;92910.91;;;15.73;93.30
11011;BME280;5558;42.702;23.178;2022-11-20T05:06:06;92905.56;;;15.81;93.48
11011;BME280;5558;42.702;23.178;2022-11-20T05:08:33;92896.31;;;15.70;93.86
11011;BME280;5558;42.702;23.178;2022-11-20T05:11:01;92900.25;;;15.73;94.56
11011;BME280;5558;42.702;23.178;2022-11-20T05:13:28;92895.38;;;15.58;95.24
11011;BME280;5558;42.702;23.178;2022-11-20T05:16:01;92906.34;;;15.56;95.52
11011;BME280;5558;42.702;23.178;2022-11-20T05:18:27;92912.34;;;15.62;96.10
11011;BME280;5558;42.702;23.178;2022-11-20T05:20:55;92914.34;;;15.56;97.20
11011;BME280;5558;42.702;23.178;2022-11-20T05:23:22;92886.69;;;15.27;98.38
11011;BME280;5558;42.702;23.178;2022-11-20T05:25:52;92916.25;;;15.47;99.35
11011;BME280;5558;42.702;23.178;2022-11-20T05:28:19;92910.75;;;15.44;100.00
11011;BME280;5558;42.702;23.178;2022-11-20T05:30:46;92919.06;;;15.42;100.00
11011;BME280;5558;42.702;23.178;2022-11-20T05:33:14;92912.75;;;15.38;100.00
11011;BME280;5558;42.702;23.178;2022-11-20T05:35:41;92907.56;;;15.33;100.00
11011;BME280;5558;42.702;23.178;2022-11-20T05:38:08;92905.22;;;15.32;100.00
11011;BME280;5558;42.702;23.178;2022-11-20T05:40:35;92892.34;;;15.25;100.00
11011;BME280;5558;42.702;23.178;2022-11-20T05:43:02;92892.78;;;15.19;100.00
11011;BME280;5558;42.702;23.178;2022-11-20T05:45:29;92875.53;;;15.08;100.00
11011;BME280;5558;42.702;23.178;2022-11-20T05:47:57;92888.06;;;15.16;100.00
11011;BME280;5558;42.702;23.178;2022-11-20T05:50:26;92900.03;;;15.27;100.00
11011;BME280;5558;42.702;23.178;2022-11-20T05:52:53;92908.91;;;15.14;100.00
11011;BME280;5558;42.702;23.178;2022-11-20T05:55:19;92900.00;;;15.18;100.00
11011;BME280;5558;42.702;23.178;2022-11-20T05:57:46;92910.34;;;15.20;100.00
11011;BME280;5558;42.702;23.178;2022-11-20T06:00:14;92915.53;;;15.25;100.00
11011;BME280;5558;42.702;23.178;2022-11-20T06:02:41;92925.75;;;15.31;100.00
11011;BME280;5558;42.702;23.178;2022-11-20T06:05:08;92934.88;;;15.39;100.00
11011;BME280;5558;42.702;23.178;2022-11-20T06:07:36;92940.09;;;15.44;100.00
11011;BME280;5558;42.702;23.178;2022-11-20T06:10:03;92938.19;;;15.53;100.00
11011;BME280;5558;42.702;23.178;2022-11-20T06:12:31;92937.44;;;15.95;100.00
11011;BME280;5558;42.702;23.178;2022-11-20T06:14:59;92938.38;;;16.33;95.53
11011;BME280;5558;42.702;23.178;2022-11-20T06:17:26;92936.59;;;16.63;93.60
11011;BME280;5558;42.702;23.178;2022-11-20T06:19:53;92947.84;;;16.85;92.47
11011;BME280;5558;42.702;23.178;2022-11-20T06:22:19;92939.56;;;16.70;92.18
11011;BME280;5558;42.702;23.178;2022-11-20T06:24:47;92945.56;;;16.41;92.89
11011;BME280;5558;42.702;23.178;2022-11-20T06:27:15;92965.41;;;16.49;93.01
11011;BME280;5558;42.702;23.178;2022-11-20T06:29:41;92956.09;;;16.55;92.85
11011;BME280;5558;42.702;23.178;2022-11-20T06:32:08;92958.59;;;16.68;90.52
11011;BME280;5558;42.702;23.178;2022-11-20T06:34:35;92950.53;;;16.85;90.79
11011;BME280;5558;42.702;23.178;2022-11-20T06:37:02;92956.03;;;16.80;90.93
11011;BME280;5558;42.702;23.178;2022-11-20T06:39:29;92962.81;;;16.69;90.91
11011;BME280;5558;42.702;23.178;2022-11-20T06:41:57;92961.56;;;16.75;91.27
11011;BME280;5558;42.702;23.178;2022-11-20T06:44:23;92970.66;;;16.74;91.29
11011;BME280;5558;42.702;23.178;2022-11-20T06:46:50;92972.59;;;16.65;90.98
11011;BME280;5558;42.702;23.178;2022-11-20T06:49:17;92972.88;;;16.81;90.28
11011;BME280;5558;42.702;23.178;2022-11-20T06:51:43;92983.41;;;16.86;90.71
11011;BME280;5558;42.702;23.178;2022-11-20T06:54:10;92969.72;;;16.87;90.23
11011;BME280;5558;42.702;23.178;2022-11-20T06:56:37;92969.84;;;16.91;88.79
11011;BME280;5558;42.702;23.178;2022-11-20T06:59:05;92959.38;;;16.77;88.99
11011;BME280;5558;42.702;23.178;2022-11-20T07:01:32;92983.84;;;16.79;89.98
11011;BME280;5558;42.702;23.178;2022-11-20T07:04:00;92975.41;;;16.77;89.89
11011;BME280;5558;42.702;23.178;2022-11-20T07:06:27;92980.94;;;16.64;91.61
11011;BME280;5558;42.702;23.178;2022-11-20T07:08:54;92994.47;;;16.50;92.16
11011;BME280;5558;42.702;23.178;2022-11-20T07:11:20;92983.31;;;16.48;93.60
11011;BME280;5558;42.702;23.178;2022-11-20T07:13:47;93001.81;;;16.36;95.26
11011;BME280;5558;42.702;23.178;2022-11-20T07:16:15;92993.03;;;16.36;95.75
11011;BME280;5558;42.702;23.178;2022-11-20T07:18:42;92987.69;;;16.27;95.60
11011;BME280;5558;42.702;23.178;2022-11-20T07:21:10;92993.50;;;16.29;95.54
11011;BME280;5558;42.702;23.178;2022-11-20T07:23:37;92988.47;;;16.11;96.40
11011;BME280;5558;42.702;23.178;2022-11-20T07:26:04;92982.06;;;16.03;97.92
11011;BME280;5558;42.702;23.178;2022-11-20T07:28:32;92978.59;;;16.03;96.61
11011;BME280;5558;42.702;23.178;2022-11-20T07:30:59;92990.66;;;16.00;97.43
11011;BME280;5558;42.702;23.178;2022-11-20T07:33:28;92997.91;;;16.00;97.94
11011;BME280;5558;42.702;23.178;2022-11-20T07:35:56;92999.31;;;16.06;97.44
11011;BME280;5558;42.702;23.178;2022-11-20T07:38:24;92993.50;;;16.04;97.95
11011;BME280;5558;42.702;23.178;2022-11-20T07:40:53;92986.75;;;15.98;96.47
11011;BME280;5558;42.702;23.178;2022-11-20T07:43:20;92992.56;;;16.08;97.99
11011;BME280;5558;42.702;23.178;2022-11-20T07:45:47;92997.75;;;16.13;97.43
11011;BME280;5558;42.702;23.178;2022-11-20T07:48:14;92990.06;;;16.03;96.75
11011;BME280;5558;42.702;23.178;2022-11-20T07:50:42;92996.34;;;16.16;96.96
11011;BME280;5558;42.702;23.178;2022-11-20T07:53:08;93008.44;;;16.22;95.57
11011;BME280;5558;42.702;23.178;2022-11-20T07:55:35;93001.03;;;16.19;95.94
11011;BME280;5558;42.702;23.178;2022-11-20T07:58:02;92996.81;;;16.09;95.01
11011;BME280;5558;42.702;23.178;2022-11-20T08:00:28;93005.63;;;16.18;96.09
11011;BME280;5558;42.702;23.178;2022-11-20T08:02:55;93013.00;;;16.21;96.25
11011;BME280;5558;42.702;23.178;2022-11-20T08:05:22;93016.59;;;16.34;95.88
11011;BME280;5558;42.702;23.178;2022-11-20T08:07:50;93020.03;;;16.34;96.60
11011;BME280;5558;42.702;23.178;2022-11-20T08:10:17;93006.69;;;16.34;97.85
11011;BME280;5558;42.702;23.178;2022-11-20T08:12:45;93002.78;;;16.23;98.08
11011;BME280;5558;42.702;23.178;2022-11-20T08:15:30;93005.28;;;16.37;99.88
11011;BME280;5558;42.702;23.178;2022-11-20T08:18:04;93011.41;;;16.37;99.77
11011;BME280;5558;42.702;23.178;2022-11-20T08:20:31;93016.75;;;16.46;100.00
11011;BME280;5558;42.702;23.178;2022-11-20T08:23:00;93013.78;;;16.56;99.51
11011;BME280;5558;42.702;23.178;2022-11-20T08:25:28;93025.88;;;16.53;99.89
11011;BME280;5558;42.702;23.178;2022-11-20T08:27:57;93019.25;;;16.34;100.00
11011;BME280;5558;42.702;23.178;2022-11-20T08:30:24;93037.66;;;16.27;100.00
11011;BME280;5558;42.702;23.178;2022-11-20T08:32:51;93028.38;;;16.16;100.00
11011;BME280;5558;42.702;23.178;2022-11-20T08:35:18;93029.00;;;16.13;100.00
11011;BME280;5558;42.702;23.178;2022-11-20T08:37:46;93040.63;;;16.00;100.00
11011;BME280;5558;42.702;23.178;2022-11-20T08:40:15;93043.28;;;16.00;100.00
11011;BME280;5558;42.702;23.178;2022-11-20T08:42:51;93049.66;;;15.81;100.00
11011;BME280;5558;42.702;23.178;2022-11-20T08:45:18;93052.72;;;15.49;100.00
11011;BME280;5558;42.702;23.178;2022-11-20T08:47:46;93070.88;;;15.39;100.00
11011;BME280;5558;42.702;23.178;2022-11-20T08:50:14;93070.47;;;15.23;100.00
11011;BME280;5558;42.702;23.178;2022-11-20T08:52:41;93066.09;;;15.27;100.00
11011;BME280;5558;42.702;23.178;2022-11-20T08:55:09;93068.75;;;15.27;100.00
11011;BME280;5558;42.702;23.178;2022-11-20T08:57:37;93081.00;;;15.28;100.00
11011;BME280;5558;42.702;23.178;2022-11-20T09:00:07;93072.25;;;15.36;100.00
11011;BME280;5558;42.702;23.178;2022-11-20T09:02:34;93069.56;;;15.28;100.00
11011;BME280;5558;42.702;23.178;2022-11-20T09:05:01;93080.22;;;15.28;100.00
11011;BME280;5558;42.702;23.178;2022-11-20T09:07:28;93076.25;;;15.17;100.00
11011;BME280;5558;42.702;23.178;2022-11-20T09:09:55;93081.59;;;15.17;100.00
11011;BME280;5558;42.702;23.178;2022-11-20T09:12:22;93087.63;;;15.09;100.00
11011;BME280;5558;42.702;23.178;2022-11-20T09:14:50;93094.44;;;15.15;100.00
11011;BME280;5558;42.702;23.178;2022-11-20T09:17:17;93089.91;;;15.15;100.00
11011;BME280;5558;42.702;23.178;2022-11-20T09:19:43;93089.28;;;15.18;100.00
11011;BME280;5558;42.702;23.178;2022-11-20T09:22:10;93084.72;;;15.19;100.00
11011;BME280;5558;42.702;23.178;2022-11-20T09:24:37;93073.19;;;15.32;100.00
11011;BME280;5558;42.702;23.178;2022-11-20T09:27:04;93075.25;;;15.35;100.00
11011;BME280;5558;42.702;23.178;2022-11-20T09:29:31;93063.66;;;15.39;100.00
11011;BME280;5558;42.702;23.178;2022-11-20T09:31:59;93053.72;;;15.31;100.00
11011;BME280;5558;42.702;23.178;2022-11-20T09:34:26;93041.88;;;15.46;100.00
11011;BME280;5558;42.702;23.178;2022-11-20T09:36:52;93035.91;;;15.40;100.00
11011;BME280;5558;42.702;23.178;2022-11-20T09:39:19;93022.63;;;15.49;100.00
11011;BME280;5558;42.702;23.178;2022-11-20T09:41:57;93021.66;;;15.45;100.00
11011;BME280;5558;42.702;23.178;2022-11-20T09:44:48;93027.94;;;15.49;100.00
11011;BME280;5558;42.702;23.178;2022-11-20T09:47:26;93024.66;;;15.52;100.00
11011;BME280;5558;42.702;23.178;2022-11-20T09:50:06;93010.03;;;15.49;100.00
11011;BME280;5558;42.702;23.178;2022-11-20T09:52:49;92995.28;;;15.43;100.00
11011;BME280;5558;42.702;23.178;2022-11-20T09:55:21;92997.34;;;15.46;100.00
11011;BME280;5558;42.702;23.178;2022-11-20T09:57:50;92992.16;;;15.50;100.00
11011;BME280;5558;42.702;23.178;2022-11-20T10:00:18;92983.22;;;15.54;100.00
11011;BME280;5558;42.702;23.178;2022-11-20T10:02:52;92987.50;;;15.64;100.00
11011;BME280;5558;42.702;23.178;2022-11-20T10:05:25;92975.09;;;15.76;100.00
11011;BME280;5558;42.702;23.178;2022-11-20T10:07:58;92974.50;;;15.79;100.00
11011;BME280;5558;42.702;23.178;2022-11-20T10:10:33;92966.94;;;15.81;100.00
11011;BME280;5558;42.702;23.178;2022-11-20T10:13:16;92975.75;;;15.91;100.00
11011;BME280;5558;42.702;23.178;2022-11-20T10:15:51;92984.25;;;15.93;100.00
11011;BME280;5558;42.702;23.178;2022-11-20T10:18:36;92984.41;;;15.96;100.00
11011;BME280;5558;42.702;23.178;2022-11-20T10:21:11;92989.59;;;16.01;100.00
11011;BME280;5558;42.702;23.178;2022-11-20T10:23:55;92999.31;;;16.06;100.00
11011;BME280;5558;42.702;23.178;2022-11-20T10:26:31;92990.81;;;15.95;100.00
11011;BME280;5558;42.702;23.178;2022-11-20T10:29:09;93023.19;;;16.11;100.00
11011;BME280;5558;42.702;23.178;2022-11-20T10:31:39;93020.50;;;16.11;100.00
11011;BME280;5558;42.702;23.178;2022-11-20T10:34:18;93029.75;;;15.88;100.00
11011;BME280;5558;42.702;23.178;2022-11-20T10:36:50;93005.69;;;15.62;100.00
11011;BME280;5558;42.702;23.178;2022-11-20T10:39:24;93009.47;;;15.22;100.00
11011;BME280;5558;42.702;23.178;2022-11-20T10:41:53;93015.72;;;14.78;100.00
11011;BME280;5558;42.702;23.178;2022-11-20T10:44:22;93006.34;;;14.36;100.00
11011;BME280;5558;42.702;23.178;2022-11-20T10:47:13;92977.88;;;13.66;100.00
11011;BME280;5558;42.702;23.178;2022-11-20T10:49:42;93025.19;;;13.28;100.00
11011;BME280;5558;42.702;23.178;2022-11-20T10:52:14;93033.72;;;12.98;100.00
11011;BME280;5558;42.702;23.178;2022-11-20T10:54:50;93035.41;;;12.62;100.00
11011;BME280;5558;42.702;23.178;2022-11-20T10:57:29;93034.06;;;12.32;100.00
11011;BME280;5558;42.702;23.178;2022-11-20T11:00:04;93027.19;;;12.31;100.00
11011;BME280;5558;42.702;23.178;2022-11-20T11:02:35;93000.44;;;12.27;100.00
11011;BME280;5558;42.702;23.178;2022-11-20T11:05:17;93001.84;;;12.06;100.00
11011;BME280;5558;42.702;23.178;2022-11-20T11:07:49;93004.06;;;11.99;100.00
11011;BME280;5558;42.702;23.178;2022-11-20T11:10:18;93004.84;;;12.00;100.00
11011;BME280;5558;42.702;23.178;2022-11-20T11:12:47;92995.25;;;12.04;100.00
11011;BME280;5558;42.702;23.178;2022-11-20T11:15:25;93004.56;;;12.01;100.00
11011;BME280;5558;42.702;23.178;2022-11-20T11:17:52;93000.81;;;12.02;100.00
11011;BME280;5558;42.702;23.178;2022-11-20T11:20:21;93014.09;;;12.02;100.00
11011;BME280;5558;42.702;23.178;2022-11-20T11:22:50;93004.47;;;12.06;100.00
11011;BME280;5558;42.702;23.178;2022-11-20T11:25:24;92992.94;;;11.97;100.00
11011;BME280;5558;42.702;23.178;2022-11-20T11:27:51;92995.81;;;12.01;100.00
11011;BME280;5558;42.702;23.178;2022-11-20T11:30:20;93000.81;;;12.02;100.00
11011;BME280;5558;42.702;23.178;2022-11-20T11:32:47;93015.59;;;12.08;100.00
11011;BME280;5558;42.702;23.178;2022-11-20T11:35:27;93010.88;;;12.05;100.00
11011;BME280;5558;42.702;23.178;2022-11-20T11:38:02;93023.84;;;12.07;100.00
11011;BME280;5558;42.702;23.178;2022-11-20T11:40:31;93032.31;;;12.09;100.00
11011;BME280;5558;42.702;23.178;2022-11-20T11:43:01;93030.56;;;12.18;100.00
11011;BME280;5558;42.702;23.178;2022-11-20T11:45:28;93011.06;;;12.27;100.00
11011;BME280;5558;42.702;23.178;2022-11-20T11:47:56;92999.16;;;12.25;100.00
11011;BME280;5558;42.702;23.178;2022-11-20T11:50:27;93000.91;;;12.29;100.00
11011;BME280;5558;42.702;23.178;2022-11-20T11:53:01;93019.81;;;12.42;100.00
11011;BME280;5558;42.702;23.178;2022-11-20T11:55:34;93025.56;;;12.49;100.00
11011;BME280;5558;42.702;23.178;2022-11-20T11:58:10;93024.75;;;12.48;100.00
11011;BME280;5558;42.702;23.178;2022-11-20T12:00:41;93012.16;;;12.40;100.00
11011;BME280;5558;42.702;23.178;2022-11-20T12:03:14;93045.69;;;12.68;100.00
11011;BME280;5558;42.702;23.178;2022-11-20T12:05:47;93035.81;;;12.69;100.00
11011;BME280;5558;42.702;23.178;2022-11-20T12:08:21;93041.56;;;12.76;100.00
11011;BME280;5558;42.702;23.178;2022-11-20T12:10:54;93035.53;;;12.70;100.00
11011;BME280;5558;42.702;23.178;2022-11-20T12:13:36;93024.56;;;12.77;100.00
11011;BME280;5558;42.702;23.178;2022-11-20T12:16:10;93031.34;;;12.83;100.00
11011;BME280;5558;42.702;23.178;2022-11-20T12:18:39;93019.91;;;12.82;100.00
11011;BME280;5558;42.702;23.178;2022-11-20T12:21:17;93039.50;;;12.86;100.00
11011;BME280;5558;42.702;23.178;2022-11-20T12:23:53;93030.44;;;12.87;100.00
11011;BME280;5558;42.702;23.178;2022-11-20T12:26:35;93047.19;;;12.88;100.00
11011;BME280;5558;42.702;23.178;2022-11-20T12:29:10;93024.19;;;12.97;100.00
11011;BME280;5558;42.702;23.178;2022-11-20T12:31:52;93007.63;;;12.86;100.00
11011;BME280;5558;42.702;23.178;2022-11-20T12:34:50;93001.63;;;12.81;100.00
11011;BME280;5558;42.702;23.178;2022-11-20T12:37:30;92985.19;;;12.92;100.00
11011;BME280;5558;42.702;23.178;2022-11-20T12:40:12;92995.72;;;12.97;100.00
11011;BME280;5558;42.702;23.178;2022-11-20T12:43:02;92998.22;;;13.07;100.00
11011;BME280;5558;42.702;23.178;2022-11-20T12:48:57;93005.59;;;12.97;100.00
11011;BME280;5558;42.702;23.178;2022-11-20T12:51:38;92983.84;;;12.95;100.00
11011;BME280;5558;42.702;23.178;2022-11-20T12:54:37;92977.63;;;12.99;100.00
11011;BME280;5558;42.702;23.178;2022-11-20T12:57:09;92975.91;;;13.08;100.00
11011;BME280;5558;42.702;23.178;2022-11-20T12:59:54;92962.53;;;13.13;100.00
11011;BME280;5558;42.702;23.178;2022-11-20T13:02:28;92935.25;;;12.94;100.00
11011;BME280;5558;42.702;23.178;2022-11-20T13:05:20;92959.75;;;13.18;100.00
11011;BME280;5558;42.702;23.178;2022-11-20T13:07:50;92963.69;;;13.21;100.00
11011;BME280;5558;42.702;23.178;2022-11-20T13:10:25;92950.22;;;13.17;100.00
11011;BME280;5558;42.702;23.178;2022-11-20T13:12:58;92956.59;;;13.16;100.00